Time;durP1;ratioP1;P1;durP2;ratioP2;P2;SDS_P1;SDS_P2;PMS_P1;PMS_P2;Temp;Humidity;BMP_temperature;BMP_pressure;BME280_temperature;BME280_humidity;BME280_pressure;Samples;Min_cycle;Max_cycle;Signal;HPM_P1;HPM_P2
2022/03/26 05:01:00;;;;;;;50.03;28.40;;;-1.40;96.30;;;;;;5354553;23;21284;-76
2022/03/26 05:03:26;;;;;;;39.77;20.47;;;-1.40;96.30;;;;;;4973312;28;20449;-74
2022/03/26 05:05:51;;;;;;;30.93;18.63;;;-1.40;96.30;;;;;;4993200;28;20420;-75
2022/03/26 05:08:17;;;;;;;32.43;17.50;;;-1.30;96.30;;;;;;4992918;28;20259;-74
2022/03/26 05:10:42;;;;;;;33.93;18.37;;;-1.20;96.30;;;;;;4993158;28;20821;-74
2022/03/26 05:13:08;;;;;;;35.93;18.70;;;-1.20;96.30;;;;;;4976059;28;20252;-74
2022/03/26 05:15:34;;;;;;;29.80;19.10;;;-1.10;96.30;;;;;;4993376;28;20217;-75
2022/03/26 05:17:59;;;;;;;28.30;18.80;;;-1.10;96.30;;;;;;4993135;28;20424;-74
2022/03/26 05:33:22;;;;;;;26.17;16.73;;;-0.50;96.30;;;;;;5542754;23;20860;-74
2022/03/26 05:35:47;;;;;;;35.43;19.87;;;-0.40;96.30;;;;;;4973358;28;20425;-74
2022/03/26 05:38:13;;;;;;;41.33;22.10;;;-0.20;96.30;;;;;;4975071;28;20530;-74
2022/03/26 05:40:39;;;;;;;39.70;23.40;;;-0.10;96.30;;;;;;4992581;28;20659;-75
2022/03/26 05:43:06;;;;;;;36.87;20.87;;;0.20;96.30;;;;;;4992879;28;20177;-76
2022/03/26 05:45:32;;;;;;;30.20;20.67;;;0.70;96.30;;;;;;4997634;28;20413;-76
2022/03/26 05:48:01;;;;;;;29.97;19.13;;;1.30;96.30;;;;;;4985115;28;20424;-77
2022/03/26 05:50:28;;;;;;;30.33;20.20;;;2.30;96.30;;;;;;4969931;28;20426;-75
2022/03/26 05:52:53;;;;;;;31.00;19.70;;;2.90;96.30;;;;;;4960547;28;20946;-76
2022/03/26 05:55:19;;;;;;;28.43;18.60;;;3.40;96.30;;;;;;4946977;28;20440;-77
2022/03/26 05:57:45;;;;;;;34.27;17.73;;;3.80;96.30;;;;;;4972865;28;20890;-77
2022/03/26 06:00:11;;;;;;;27.93;17.47;;;4.60;96.30;;;;;;4972891;28;20501;-76
2022/03/26 06:02:37;;;;;;;40.93;17.47;;;5.40;96.30;;;;;;4955391;28;20186;-79
2022/03/26 06:05:05;;;;;;;24.13;16.60;;;5.80;96.30;;;;;;4973059;28;20823;-75
2022/03/26 06:07:31;;;;;;;27.83;16.80;;;5.70;96.30;;;;;;4955686;28;20480;-75
2022/03/26 06:09:57;;;;;;;25.53;16.70;;;6.10;96.30;;;;;;4972966;28;20759;-75
2022/03/26 06:12:23;;;;;;;26.17;15.57;;;6.50;96.30;;;;;;4962104;28;20465;-75
2022/03/26 06:14:48;;;;;;;28.87;15.87;;;6.90;96.30;;;;;;4956967;29;20206;-75
2022/03/26 06:17:15;;;;;;;21.30;16.03;;;7.40;96.30;;;;;;4957481;29;20501;-75
2022/03/26 06:19:42;;;;;;;26.77;17.67;;;7.40;96.30;;;;;;4957377;29;20178;-74
2022/03/26 06:22:07;;;;;;;33.67;17.43;;;7.60;96.30;;;;;;4957392;29;20427;-74
2022/03/26 06:24:33;;;;;;;24.30;16.10;;;7.40;96.30;;;;;;4960131;28;20867;-73
2022/03/26 06:26:59;;;;;;;33.97;17.10;;;7.80;96.30;;;;;;4973661;28;20185;-74
2022/03/26 06:29:25;;;;;;;24.80;17.40;;;8.10;96.30;;;;;;4976306;28;20257;-74
2022/03/26 06:31:50;;;;;;;24.47;16.70;;;8.50;96.30;;;;;;4959058;28;20886;-74
2022/03/26 06:34:16;;;;;;;24.40;15.90;;;9.00;96.30;;;;;;4976233;28;20296;-74
2022/03/26 06:36:42;;;;;;;21.20;15.33;;;9.50;95.00;;;;;;4976519;28;20174;-74
2022/03/26 06:39:07;;;;;;;24.13;17.60;;;9.60;93.70;;;;;;4976318;28;20202;-74
2022/03/26 06:41:38;;;;;;;33.83;17.83;;;10.20;92.70;;;;;;4976288;28;20658;-76
2022/03/26 06:44:10;;;;;;;27.17;16.83;;;10.50;90.60;;;;;;4975422;28;20171;-78
2022/03/26 06:46:37;;;;;;;26.13;16.43;;;9.90;92.40;;;;;;4975744;28;20410;-75
2022/03/26 06:49:04;;;;;;;29.00;18.43;;;10.80;89.60;;;;;;4955428;28;20422;-76
2022/03/26 06:51:30;;;;;;;30.27;17.43;;;10.90;89.00;;;;;;4965734;28;20453;-74
2022/03/26 06:53:55;;;;;;;24.73;16.97;;;11.30;88.20;;;;;;4958983;28;20456;-74
2022/03/26 06:56:21;;;;;;;30.33;18.90;;;11.40;87.80;;;;;;4976030;28;20417;-75
2022/03/26 06:58:46;;;;;;;25.20;16.90;;;11.30;89.00;;;;;;4975544;28;20171;-75
2022/03/26 07:01:12;;;;;;;28.67;17.23;;;11.60;87.20;;;;;;4975967;28;20194;-75
2022/03/26 07:03:37;;;;;;;26.10;18.67;;;11.80;87.00;;;;;;4975969;28;20186;-75
2022/03/26 07:06:04;;;;;;;28.27;18.93;;;11.40;87.50;;;;;;4976093;28;20174;-74
2022/03/26 07:08:29;;;;;;;25.70;18.27;;;11.50;88.50;;;;;;4974926;28;20170;-75
2022/03/26 07:10:56;;;;;;;24.50;17.57;;;12.10;87.20;;;;;;4975378;28;20448;-75
2022/03/26 07:13:21;;;;;;;23.17;17.17;;;12.20;86.00;;;;;;4975742;28;20292;-76
2022/03/26 07:15:48;;;;;;;27.93;19.10;;;12.40;85.60;;;;;;4975807;28;20449;-74
2022/03/26 07:18:13;;;;;;;24.13;18.60;;;12.40;85.50;;;;;;4957709;28;20209;-75
2022/03/26 07:20:39;;;;;;;24.97;17.77;;;12.80;84.20;;;;;;4975525;28;21011;-75
2022/03/26 07:23:05;;;;;;;21.60;17.03;;;12.60;84.70;;;;;;4975563;28;20175;-75
2022/03/26 07:25:30;;;;;;;25.73;16.87;;;13.00;83.70;;;;;;4974147;28;20174;-75
2022/03/26 07:27:56;;;;;;;27.30;18.23;;;13.30;83.50;;;;;;4974860;28;20241;-77
2022/03/26 07:30:22;;;;;;;25.43;16.50;;;14.00;81.30;;;;;;4974297;28;20520;-74
2022/03/26 07:32:47;;;;;;;33.73;17.23;;;13.10;83.30;;;;;;4958019;28;20205;-74
2022/03/26 07:35:13;;;;;;;28.83;18.47;;;13.60;82.90;;;;;;4971722;28;20174;-74
2022/03/26 07:37:39;;;;;;;23.13;16.83;;;14.40;80.20;;;;;;4974922;28;20170;-74
2022/03/26 07:40:05;;;;;;;24.83;16.77;;;15.00;78.80;;;;;;4974548;28;20182;-76
2022/03/26 07:42:30;;;;;;;26.60;16.87;;;14.80;79.10;;;;;;4969801;28;20210;-76
2022/03/26 07:44:56;;;;;;;25.57;18.20;;;15.20;79.10;;;;;;4967004;28;20742;-74
2022/03/26 07:47:22;;;;;;;19.40;16.10;;;15.20;79.30;;;;;;4975040;28;20599;-73
2022/03/26 07:49:47;;;;;;;30.73;17.97;;;15.60;77.80;;;;;;4974211;28;20186;-74
2022/03/26 07:52:13;;;;;;;34.57;20.20;;;15.20;79.20;;;;;;4974637;28;20191;-76
2022/03/26 07:54:39;;;;;;;36.10;22.17;;;15.50;79.60;;;;;;4975163;28;20194;-74
2022/03/26 07:57:04;;;;;;;25.77;20.60;;;16.50;77.10;;;;;;4975255;28;20173;-75
2022/03/26 07:59:30;;;;;;;36.00;21.87;;;17.10;78.80;;;;;;4974729;28;20169;-75
2022/03/26 08:01:56;;;;;;;33.30;22.57;;;17.10;75.30;;;;;;4974954;28;20456;-75
2022/03/26 08:04:22;;;;;;;38.80;23.60;;;17.20;76.00;;;;;;4975133;28;20273;-77
2022/03/26 08:06:47;;;;;;;38.80;22.97;;;16.60;74.40;;;;;;4958775;28;20170;-76
2022/03/26 08:09:13;;;;;;;45.13;22.30;;;16.90;76.80;;;;;;4972222;28;20241;-77
2022/03/26 08:11:38;;;;;;;33.20;22.87;;;17.60;75.90;;;;;;4975410;28;20558;-76
2022/03/26 08:14:04;;;;;;;34.03;23.13;;;17.80;75.90;;;;;;4966038;28;20265;-75
2022/03/26 08:16:29;;;;;;;35.60;22.00;;;18.00;74.00;;;;;;4955911;29;20198;-77
2022/03/26 08:18:55;;;;;;;28.90;21.27;;;17.20;74.40;;;;;;4955156;29;20579;-76
2022/03/26 08:21:20;;;;;;;39.37;23.13;;;16.90;75.50;;;;;;4938221;29;20286;-74
2022/03/26 08:23:46;;;;;;;42.70;23.10;;;16.80;73.80;;;;;;4955400;29;20209;-74
2022/03/26 08:26:26;;;;;;;36.30;22.47;;;16.40;78.40;;;;;;4955255;29;20179;-74
2022/03/26 08:28:53;;;;;;;29.70;21.47;;;15.60;79.20;;;;;;4967833;28;20178;-74
2022/03/26 08:31:20;;;;;;;41.20;22.33;;;15.90;80.00;;;;;;4973812;28;20933;-76
2022/03/26 08:33:46;;;;;;;32.50;21.20;;;16.20;79.60;;;;;;4973729;28;20850;-74
2022/03/26 08:36:12;;;;;;;38.20;20.73;;;16.70;77.70;;;;;;4973957;28;20429;-75
2022/03/26 08:38:39;;;;;;;30.40;20.90;;;17.30;76.80;;;;;;4973935;28;20166;-75
2022/03/26 08:41:05;;;;;;;37.47;22.60;;;17.50;76.40;;;;;;4973585;28;20433;-76
2022/03/26 08:43:31;;;;;;;33.10;22.70;;;17.70;75.90;;;;;;4973965;28;21127;-74
2022/03/26 08:45:56;;;;;;;39.63;21.50;;;18.00;75.90;;;;;;4974068;28;20303;-74
2022/03/26 08:48:22;;;;;;;35.70;21.57;;;17.60;75.80;;;;;;4973773;28;20921;-75
2022/03/26 08:50:48;;;;;;;36.17;20.97;;;17.30;76.20;;;;;;4973902;28;20213;-76
2022/03/26 08:53:13;;;;;;;33.83;20.70;;;17.20;77.70;;;;;;4972349;28;20208;-77
2022/03/26 08:55:39;;;;;;;34.50;20.87;;;17.30;76.40;;;;;;4970717;28;20286;-77
2022/03/26 08:58:07;;;;;;;31.37;22.10;;;17.70;75.80;;;;;;4973266;28;20696;-77
2022/03/26 09:00:34;;;;;;;31.07;22.03;;;17.30;76.70;;;;;;4973520;28;20542;-77
2022/03/26 09:03:00;;;;;;;35.07;22.03;;;17.80;78.10;;;;;;4964237;28;20480;-77
2022/03/26 09:05:25;;;;;;;30.73;20.97;;;18.00;77.10;;;;;;4973610;28;20430;-77
2022/03/26 09:07:51;;;;;;;32.30;23.13;;;18.40;76.20;;;;;;4974199;28;20257;-79
2022/03/26 09:10:17;;;;;;;31.50;22.13;;;18.70;75.80;;;;;;4973298;28;20190;-78
2022/03/26 09:12:42;;;;;;;28.20;21.53;;;19.30;73.10;;;;;;4968498;28;20529;-77
2022/03/26 09:15:09;;;;;;;35.03;22.33;;;19.20;75.70;;;;;;4973712;28;20198;-77
2022/03/26 09:17:36;;;;;;;34.03;23.00;;;19.40;76.70;;;;;;4972955;28;20417;-77
2022/03/26 09:20:02;;;;;;;37.70;22.20;;;19.90;73.70;;;;;;4973858;28;20228;-78
2022/03/26 09:22:27;;;;;;;34.80;22.60;;;20.70;72.30;;;;;;4965445;28;21016;-77
2022/03/26 09:24:53;;;;;;;36.70;22.20;;;20.00;69.90;;;;;;4973703;28;20493;-78
2022/03/26 09:27:18;;;;;;;37.20;23.30;;;19.30;73.10;;;;;;4973246;28;20181;-77
2022/03/26 09:29:45;;;;;;;85.47;23.03;;;19.00;75.00;;;;;;4973104;28;20174;-75
2022/03/26 09:32:10;;;;;;;36.00;22.80;;;19.40;75.00;;;;;;4973512;28;20197;-76
2022/03/26 09:34:36;;;;;;;34.73;22.20;;;19.00;74.70;;;;;;4973425;28;20461;-76
2022/03/26 09:37:02;;;;;;;45.33;22.47;;;19.10;75.40;;;;;;4956310;28;20634;-76
2022/03/26 09:39:27;;;;;;;40.10;23.83;;;19.80;73.50;;;;;;4973091;28;20175;-76
2022/03/26 09:41:53;;;;;;;37.30;23.20;;;19.90;75.70;;;;;;4973441;28;20205;-77
2022/03/26 09:44:21;;;;;;;46.53;24.93;;;19.30;73.50;;;;;;4973283;28;20185;-76
2022/03/26 09:46:46;;;;;;;39.47;23.13;;;18.80;75.30;;;;;;4973154;28;20937;-76
2022/03/26 09:49:12;;;;;;;36.13;22.67;;;17.90;78.20;;;;;;4973829;28;20421;-76
2022/03/26 09:51:38;;;;;;;39.87;23.60;;;18.60;77.10;;;;;;4973189;28;20276;-77
2022/03/26 09:54:03;;;;;;;46.63;23.93;;;19.40;74.00;;;;;;4971933;28;20194;-78
2022/03/26 09:56:30;;;;;;;47.30;24.10;;;19.70;74.30;;;;;;4973048;28;20162;-76
2022/03/26 09:58:59;;;;;;;37.57;23.87;;;;;;;;;;4972695;28;20713;-77
2022/03/26 10:01:28;;;;;;;34.13;24.63;;;20.00;72.20;;;;;;4972843;28;20490;-79
2022/03/26 10:04:13;;;;;;;36.53;23.83;;;19.00;75.90;;;;;;4973531;28;20414;-75
2022/03/26 10:06:56;;;;;;;38.83;24.90;;;18.40;76.70;;;;;;4954704;28;20407;-78
2022/03/26 10:09:35;;;;;;;38.60;23.30;;;18.10;76.20;;;;;;4967079;28;20434;-78
2022/03/26 10:12:06;;;;;;;32.30;23.03;;;17.20;78.30;;;;;;4971581;28;21010;-79
2022/03/26 10:14:39;;;;;;;35.80;23.27;;;17.50;79.30;;;;;;4940936;28;20464;-78
2022/03/26 10:17:11;;;;;;;44.53;26.53;;;17.50;79.00;;;;;;4972904;28;20413;-74
2022/03/26 10:19:44;;;;;;;39.70;23.50;;;17.70;78.70;;;;;;4973345;28;20412;-76
2022/03/26 10:22:22;;;;;;;32.70;22.63;;;16.90;79.50;;;;;;4973471;28;20464;-76
2022/03/26 10:24:48;;;;;;;34.23;22.97;;;16.00;84.00;;;;;;4974331;28;20421;-77
2022/03/26 10:27:13;;;;;;;35.10;22.37;;;16.30;83.60;;;;;;4971378;28;20937;-77
2022/03/26 10:29:59;;;;;;;42.30;24.20;;;16.40;82.60;;;;;;4964099;28;20237;-78
2022/03/26 10:32:51;;;;;;;46.40;24.07;;;16.10;83.10;;;;;;4972274;28;20556;-76
2022/03/26 10:35:22;;;;;;;38.43;24.57;;;16.30;85.30;;;;;;4959409;28;20422;-78
2022/03/26 10:37:54;;;;;;;46.17;25.70;;;16.40;84.80;;;;;;4972306;28;20425;-77
2022/03/26 10:40:27;;;;;;;43.17;26.07;;;16.80;82.20;;;;;;4972592;28;20964;-78
2022/03/26 10:43:14;;;;;;;40.67;23.37;;;17.00;81.10;;;;;;4972974;28;20901;-74
2022/03/26 10:45:51;;;;;;;38.00;25.33;;;16.40;85.20;;;;;;4966027;28;20828;-76
2022/03/26 10:48:27;;;;;;;40.30;24.73;;;16.50;85.80;;;;;;4970352;28;20437;-77
2022/03/26 10:51:01;;;;;;;38.83;23.53;;;17.10;85.00;;;;;;4961534;28;20459;-78
2022/03/26 10:53:41;;;;;;;39.17;23.83;;;17.80;82.40;;;;;;4972531;28;20468;-78
2022/03/26 10:56:11;;;;;;;34.50;23.80;;;17.40;82.40;;;;;;4969172;28;20413;-77
2022/03/26 10:58:38;;;;;;;35.40;24.40;;;17.30;82.30;;;;;;4967939;28;20804;-77
2022/03/26 11:01:05;;;;;;;36.47;23.53;;;17.40;82.40;;;;;;4971315;28;20445;-76
2022/03/26 11:03:31;;;;;;;30.90;21.93;;;17.10;82.00;;;;;;4975875;28;20421;-76
2022/03/26 11:05:57;;;;;;;28.17;19.30;;;17.70;82.60;;;;;;4974516;28;20448;-74
2022/03/26 11:08:24;;;;;;;33.53;19.93;;;18.00;78.40;;;;;;4976064;28;20413;-76
2022/03/26 11:10:52;;;;;;;26.90;18.93;;;18.00;78.10;;;;;;4978237;28;20452;-75
2022/03/26 11:13:19;;;;;;;29.90;15.03;;;18.00;80.20;;;;;;4974843;28;20480;-75
2022/03/26 11:15:49;;;;;;;24.53;16.20;;;17.50;77.10;;;;;;4976765;28;20421;-74
2022/03/26 11:18:29;;;;;;;27.90;15.27;;;16.80;78.80;;;;;;4968775;28;20497;-76
2022/03/26 11:21:42;;;;;;;23.70;15.23;;;16.70;79.70;;;;;;4977674;28;20433;-76
2022/03/26 11:24:26;;;;;;;18.10;10.83;;;16.80;78.80;;;;;;4961765;28;20432;-76
2022/03/26 11:27:30;;;;;;;20.20;11.63;;;16.70;83.10;;;;;;4971212;28;20801;-77
2022/03/26 11:30:18;;;;;;;20.60;11.73;;;17.20;80.00;;;;;;4966907;28;20472;-77
2022/03/26 11:32:45;;;;;;;25.97;11.97;;;17.10;79.00;;;;;;4966372;28;20964;-77
2022/03/26 11:35:17;;;;;;;18.73;10.90;;;17.00;77.40;;;;;;4970778;28;20921;-77
2022/03/26 11:38:02;;;;;;;18.17;10.80;;;17.20;80.00;;;;;;4952787;28;20430;-77
2022/03/26 11:40:40;;;;;;;13.97;9.80;;;16.70;75.40;;;;;;4972821;28;20913;-76
2022/03/26 11:43:05;;;;;;;17.50;11.50;;;16.40;77.70;;;;;;4955674;28;20425;-76
2022/03/26 11:51:23;;;;;;;18.90;10.80;;;17.60;77.20;;;;;;4976045;28;20957;-76
2022/03/26 11:53:56;;;;;;;15.37;9.63;;;17.60;76.80;;;;;;4966757;28;20468;-76
2022/03/26 11:56:27;;;;;;;21.37;7.10;;;17.20;74.10;;;;;;4974184;28;20430;-77
2022/03/26 11:59:23;;;;;;;16.63;8.87;;;16.90;74.50;;;;;;4974768;28;20919;-75
2022/03/26 12:01:50;;;;;;;15.00;8.60;;;16.70;78.60;;;;;;4974376;28;20429;-75
2022/03/26 12:04:24;;;;;;;17.20;9.60;;;16.70;78.50;;;;;;4976860;28;21000;-77
2022/03/26 12:06:54;;;;;;;25.57;10.63;;;17.50;77.20;;;;;;4974912;28;20986;-74
2022/03/26 12:09:35;;;;;;;18.17;10.63;;;17.60;78.70;;;;;;4955152;29;20453;-77
2022/03/26 12:12:08;;;;;;;15.90;8.07;;;17.90;76.60;;;;;;4937649;29;20434;-77
2022/03/26 12:14:35;;;;;;;11.63;8.43;;;16.90;77.90;;;;;;4968967;28;20451;-74
2022/03/26 12:17:03;;;;;;;12.23;8.57;;;16.90;79.20;;;;;;4974414;28;20952;-76
2022/03/26 12:19:50;;;;;;;15.77;8.90;;;16.90;77.80;;;;;;4974258;28;20406;-75
2022/03/26 12:22:26;;;;;;;15.77;10.10;;;16.70;78.40;;;;;;4972143;28;20926;-74
2022/03/26 12:24:56;;;;;;;14.77;9.60;;;16.50;78.90;;;;;;4937542;29;20426;-74
2022/03/26 12:27:22;;;;;;;17.03;9.93;;;16.50;80.90;;;;;;4955216;29;20498;-75
2022/03/26 12:29:49;;;;;;;12.13;8.30;;;16.70;80.90;;;;;;4953916;28;20418;-74
2022/03/26 12:32:17;;;;;;;21.37;6.93;;;17.00;80.60;;;;;;4985435;28;20568;-74
2022/03/26 12:34:58;;;;;;;12.93;8.20;;;16.90;79.80;;;;;;4974222;28;20930;-74
2022/03/26 12:37:25;;;;;;;17.80;9.83;;;16.40;79.40;;;;;;4956823;28;20764;-74
2022/03/26 12:39:51;;;;;;;21.33;10.43;;;16.40;81.90;;;;;;4971540;28;20409;-74
2022/03/26 12:42:18;;;;;;;16.20;10.70;;;17.00;80.80;;;;;;4962132;28;20429;-74
2022/03/26 12:44:44;;;;;;;21.27;10.87;;;16.90;81.40;;;;;;4974091;28;20420;-78
2022/03/26 12:47:15;;;;;;;21.03;8.50;;;17.00;77.70;;;;;;4973985;28;20504;-78
2022/03/26 12:49:40;;;;;;;22.73;10.73;;;16.40;80.30;;;;;;4973457;28;20489;-75
2022/03/26 12:52:06;;;;;;;23.10;10.27;;;16.50;82.60;;;;;;4973833;28;20544;-74
2022/03/26 12:54:32;;;;;;;16.27;9.90;;;;;;;;;;4962532;28;20189;-74
2022/03/26 12:57:01;;;;;;;14.10;10.27;;;17.30;81.30;;;;;;4969171;28;20261;-74
2022/03/26 12:59:27;;;;;;;30.80;12.20;;;17.40;78.10;;;;;;4948806;28;20190;-74
2022/03/26 13:02:00;;;;;;;21.00;12.83;;;16.90;79.40;;;;;;4979022;28;20540;-74
2022/03/26 13:04:26;;;;;;;18.63;12.03;;;17.00;78.90;;;;;;4976635;28;20438;-74
2022/03/26 13:06:54;;;;;;;19.90;11.60;;;16.90;79.80;;;;;;4973917;28;20420;-74
2022/03/26 13:09:19;;;;;;;25.50;13.00;;;16.90;80.00;;;;;;4987464;28;20185;-75
2022/03/26 13:11:50;;;;;;;30.37;11.90;;;17.00;82.00;;;;;;4975663;28;20801;-76
2022/03/26 13:14:18;;;;;;;78.33;11.97;;;17.30;80.00;;;;;;4993143;28;20192;-75
2022/03/26 13:16:49;;;;;;;18.30;9.20;;;17.30;78.20;;;;;;4993276;28;20767;-72
2022/03/26 13:19:16;;;;;;;22.60;10.80;;;16.80;79.70;;;;;;4985439;28;20556;-77
2022/03/26 13:21:43;;;;;;;14.50;9.30;;;16.00;80.80;;;;;;4952239;28;20490;-74
2022/03/26 13:24:15;;;;;;;18.33;11.43;;;15.70;82.60;;;;;;4960547;28;20426;-76
2022/03/26 13:26:52;;;;;;;13.93;8.87;;;16.00;82.70;;;;;;4973414;28;20512;-74
2022/03/26 13:29:23;;;;;;;20.67;9.50;;;16.00;82.00;;;;;;4972635;28;20425;-76
2022/03/26 13:31:50;;;;;;;20.30;9.60;;;15.90;82.70;;;;;;4973253;28;20929;-74
2022/03/26 13:34:27;;;;;;;15.37;9.63;;;15.80;84.60;;;;;;4973351;28;20520;-77
2022/03/26 13:36:53;;;;;;;14.83;9.93;;;16.20;85.00;;;;;;4955821;28;20413;-74
2022/03/26 13:39:25;;;;;;;15.00;8.80;;;16.60;83.60;;;;;;4955484;28;20441;-74
2022/03/26 13:41:51;;;;;;;12.10;8.83;;;16.60;81.70;;;;;;4972364;28;20534;-77
2022/03/26 13:44:18;;;;;;;13.73;8.10;;;16.70;82.20;;;;;;4963974;28;20516;-76
2022/03/26 13:46:45;;;;;;;13.67;9.13;;;16.70;81.70;;;;;;4973136;28;20197;-77
2022/03/26 13:49:26;;;;;;;16.93;8.80;;;16.40;84.90;;;;;;4972772;28;20512;-77
2022/03/26 13:51:54;;;;;;;11.07;7.70;;;16.40;82.50;;;;;;4959074;28;20448;-77
2022/03/26 13:54:28;;;;;;;9.40;7.00;;;15.90;84.50;;;;;;4972961;28;20461;-77
2022/03/26 13:56:57;;;;;;;24.00;7.93;;;16.20;85.40;;;;;;4973187;28;20416;-77
2022/03/26 13:59:24;;;;;;;15.80;8.37;;;16.20;83.10;;;;;;4972678;28;20410;-76
2022/03/26 14:01:52;;;;;;;17.73;9.50;;;16.20;84.20;;;;;;4972779;28;21118;-77
2022/03/26 14:04:28;;;;;;;11.50;9.33;;;16.10;84.10;;;;;;4972031;28;20789;-76
2022/03/26 14:06:54;;;;;;;11.73;8.87;;;16.30;84.30;;;;;;4955496;28;20425;-77
2022/03/26 14:09:22;;;;;;;19.60;9.80;;;16.50;85.10;;;;;;4955117;28;20813;-77
2022/03/26 14:11:48;;;;;;;12.17;9.57;;;16.60;84.40;;;;;;4955543;28;21012;-77
2022/03/26 14:14:15;;;;;;;17.87;9.60;;;16.50;82.90;;;;;;4973011;28;20552;-77
2022/03/26 14:16:40;;;;;;;13.50;9.17;;;16.30;82.00;;;;;;4973381;28;20453;-77
2022/03/26 14:19:06;;;;;;;15.47;9.53;;;15.90;83.60;;;;;;4955253;28;20422;-76
2022/03/26 14:21:33;;;;;;;11.00;9.30;;;16.40;83.20;;;;;;4973152;28;20194;-77
2022/03/26 14:23:58;;;;;;;11.33;10.07;;;16.40;82.80;;;;;;4972652;28;20425;-77
2022/03/26 14:26:24;;;;;;;23.93;11.93;;;16.20;84.60;;;;;;4972945;28;20972;-77
2022/03/26 14:28:49;;;;;;;19.20;11.40;;;16.20;87.90;;;;;;4972429;28;20183;-77
2022/03/26 14:31:15;;;;;;;14.80;11.37;;;16.20;83.90;;;;;;4972909;28;20205;-78
2022/03/26 14:33:41;;;;;;;18.30;11.10;;;16.50;84.70;;;;;;4972687;28;20737;-77
2022/03/26 14:36:07;;;;;;;22.17;10.00;;;16.40;82.10;;;;;;4976662;28;20229;-77
2022/03/26 14:38:33;;;;;;;14.73;10.80;;;16.20;83.50;;;;;;4976208;28;20538;-79
2022/03/26 14:40:59;;;;;;;13.23;11.40;;;16.00;83.60;;;;;;4967663;28;20429;-78
2022/03/26 14:43:25;;;;;;;17.07;11.40;;;16.00;85.30;;;;;;4977262;28;20185;-78
2022/03/26 14:45:52;;;;;;;19.77;11.60;;;16.00;86.00;;;;;;4977249;28;20429;-78
2022/03/26 14:48:19;;;;;;;14.20;9.83;;;16.10;85.40;;;;;;4975237;28;20178;-78
2022/03/26 14:50:45;;;;;;;16.20;10.43;;;16.40;84.40;;;;;;4977228;28;20441;-77
2022/03/26 14:53:11;;;;;;;14.77;11.60;;;16.50;85.70;;;;;;4976798;28;20453;-78
2022/03/26 14:55:38;;;;;;;14.87;11.07;;;16.60;83.70;;;;;;4977196;28;20413;-77
2022/03/26 14:58:03;;;;;;;12.20;10.33;;;16.50;82.10;;;;;;4975993;28;20408;-78
2022/03/26 15:00:30;;;;;;;13.70;9.90;;;16.30;84.10;;;;;;4976378;28;20500;-77
2022/03/26 15:02:56;;;;;;;12.97;9.67;;;16.10;84.70;;;;;;4958824;28;20181;-77
2022/03/26 15:05:23;;;;;;;14.57;10.70;;;16.10;85.60;;;;;;4976491;28;20413;-77
2022/03/26 15:07:49;;;;;;;13.57;10.73;;;;;;;;;;4975161;28;20430;-77
2022/03/26 15:10:14;;;;;;;11.40;10.20;;;16.00;85.70;;;;;;4976335;28;20406;-77
2022/03/26 15:12:41;;;;;;;21.30;11.87;;;15.80;84.60;;;;;;4976094;28;20945;-78
2022/03/26 15:15:07;;;;;;;16.10;11.37;;;15.70;85.80;;;;;;4976259;28;20209;-77
2022/03/26 15:17:32;;;;;;;14.80;11.60;;;15.50;85.50;;;;;;4975821;28;20414;-77
2022/03/26 15:19:58;;;;;;;19.70;10.60;;;15.50;89.00;;;;;;4975056;28;20174;-77
2022/03/26 15:22:23;;;;;;;11.17;8.90;;;15.60;88.10;;;;;;4976399;28;20198;-76
2022/03/26 15:24:49;;;;;;;12.10;8.33;;;15.90;88.30;;;;;;4976862;28;20186;-76
2022/03/26 15:27:14;;;;;;;11.43;7.80;;;15.80;84.40;;;;;;4977068;28;20237;-77
2022/03/26 15:29:40;;;;;;;8.90;6.30;;;15.80;85.90;;;;;;4976270;28;20183;-77
2022/03/26 15:32:06;;;;;;;11.53;7.87;;;15.70;85.50;;;;;;4976515;28;20250;-76
2022/03/26 15:34:32;;;;;;;7.67;6.60;;;15.50;84.90;;;;;;4958946;28;20304;-76
2022/03/26 15:36:58;;;;;;;9.97;7.07;;;15.40;85.10;;;;;;4975610;28;20437;-75
2022/03/26 15:39:23;;;;;;;10.33;8.53;;;15.20;86.40;;;;;;4976357;28;20258;-76
2022/03/26 15:41:52;;;;;;;8.43;6.20;;;15.20;86.60;;;;;;4995426;28;20226;-77
2022/03/26 15:44:17;;;;;;;8.30;6.43;;;15.40;86.50;;;;;;4995412;28;20186;-78
2022/03/26 15:46:43;;;;;;;8.30;6.90;;;15.50;86.60;;;;;;4976057;28;20437;-77
2022/03/26 15:49:08;;;;;;;9.10;6.17;;;15.50;86.70;;;;;;4975042;28;20182;-77
2022/03/26 15:51:34;;;;;;;7.77;5.70;;;15.50;85.40;;;;;;4974983;28;20241;-75
2022/03/26 15:54:00;;;;;;;7.40;5.80;;;15.50;84.80;;;;;;4969925;28;20244;-75
2022/03/26 15:56:26;;;;;;;9.20;5.43;;;15.60;83.20;;;;;;4975372;28;20418;-77
2022/03/26 15:58:52;;;;;;;9.90;5.33;;;15.70;84.00;;;;;;4974764;28;20175;-75
2022/03/26 16:01:18;;;;;;;18.13;5.70;;;15.70;82.90;;;;;;4974809;28;20436;-75
2022/03/26 16:03:43;;;;;;;6.20;4.70;;;15.70;83.20;;;;;;4975241;28;20417;-76
2022/03/26 16:06:09;;;;;;;7.63;3.70;;;15.70;81.50;;;;;;4956424;28;20255;-77
2022/03/26 16:08:34;;;;;;;5.87;3.93;;;15.40;82.10;;;;;;4955144;28;20189;-77
2022/03/26 16:11:00;;;;;;;5.27;4.20;;;15.10;83.40;;;;;;4973786;28;20209;-77
2022/03/26 16:13:27;;;;;;;6.37;4.00;;;15.00;83.00;;;;;;4980742;28;20541;-75
2022/03/26 16:15:53;;;;;;;7.27;4.10;;;14.70;85.20;;;;;;4976685;28;20814;-74
2022/03/26 16:18:19;;;;;;;5.80;4.10;;;14.40;85.80;;;;;;4957263;28;20489;-76
2022/03/26 16:20:45;;;;;;;7.83;4.07;;;14.20;85.20;;;;;;4975114;28;20422;-77
2022/03/26 16:23:11;;;;;;;5.90;4.70;;;14.00;86.70;;;;;;4974851;28;20178;-77
2022/03/26 16:25:37;;;;;;;5.03;3.90;;;13.90;87.20;;;;;;4973757;28;20409;-76
2022/03/26 16:28:03;;;;;;;5.27;3.90;;;13.80;87.30;;;;;;4974462;28;20202;-76
2022/03/26 16:30:29;;;;;;;6.67;4.60;;;13.70;88.30;;;;;;4974583;28;20418;-76
2022/03/26 16:32:55;;;;;;;6.70;3.60;;;13.60;87.70;;;;;;4974180;28;20445;-76
2022/03/26 16:35:21;;;;;;;4.93;3.80;;;13.70;90.10;;;;;;4974293;28;20236;-76
2022/03/26 16:37:46;;;;;;;11.03;4.07;;;13.70;90.70;;;;;;4973707;28;20906;-77
2022/03/26 16:40:12;;;;;;;4.17;3.37;;;13.60;87.80;;;;;;4956812;28;20657;-78
2022/03/26 16:42:38;;;;;;;7.10;3.97;;;13.60;88.80;;;;;;4967812;28;20198;-79
2022/03/26 16:45:04;;;;;;;9.17;4.10;;;13.60;87.60;;;;;;4955067;29;20258;-77
2022/03/26 16:47:30;;;;;;;3.47;3.17;;;13.50;87.70;;;;;;4954902;29;20206;-77
2022/03/26 16:49:56;;;;;;;8.47;3.77;;;13.50;88.50;;;;;;4956260;29;20422;-77
2022/03/26 16:52:22;;;;;;;10.53;4.43;;;;;;;;;;4954889;29;20438;-77
2022/03/26 16:54:48;;;;;;;6.90;3.90;;;13.30;90.10;;;;;;4937804;29;20481;-77
2022/03/26 16:57:14;;;;;;;5.00;3.80;;;13.30;90.70;;;;;;4956150;28;20662;-76
2022/03/26 16:59:39;;;;;;;3.90;3.20;;;13.20;89.80;;;;;;4956643;28;20547;-77
2022/03/26 17:02:06;;;;;;;6.10;3.73;;;13.20;89.10;;;;;;4974291;28;20195;-78
2022/03/26 17:04:31;;;;;;;4.03;3.63;;;13.10;90.00;;;;;;4961729;28;20189;-79
2022/03/26 17:06:57;;;;;;;7.47;4.17;;;12.90;90.80;;;;;;4958118;28;20418;-78
2022/03/26 17:09:23;;;;;;;9.10;3.90;;;12.90;89.30;;;;;;4950086;28;20181;-77
2022/03/26 17:11:48;;;;;;;5.47;3.60;;;12.90;89.70;;;;;;4937439;29;20199;-78
2022/03/26 17:14:14;;;;;;;5.67;3.93;;;12.90;90.10;;;;;;4966314;28;20198;-78
2022/03/26 17:16:39;;;;;;;8.80;3.83;;;12.80;89.50;;;;;;4955787;28;20183;-79
2022/03/26 17:19:05;;;;;;;16.30;3.87;;;12.70;89.40;;;;;;4977291;28;20185;-78
2022/03/26 17:21:36;;;;;;;4.53;3.43;;;12.70;89.50;;;;;;4978132;28;20200;-81
2022/03/26 17:24:10;;;;;;;7.27;4.10;;;12.60;89.00;;;;;;4997611;28;20166;-82
2022/03/26 17:26:37;;;;;;;5.00;3.57;;;12.60;91.20;;;;;;4997737;28;20413;-79
2022/03/26 17:29:04;;;;;;;8.83;4.13;;;12.60;89.70;;;;;;4981605;28;20417;-80
2022/03/26 17:31:30;;;;;;;6.30;4.03;;;12.50;89.40;;;;;;4981330;28;20472;-79
2022/03/26 17:33:55;;;;;;;10.60;4.20;;;12.50;89.80;;;;;;4973817;28;20505;-76
2022/03/26 17:36:21;;;;;;;5.07;4.47;;;12.40;90.00;;;;;;4974086;28;20261;-76
2022/03/26 17:38:47;;;;;;;4.30;3.90;;;12.40;90.30;;;;;;4957043;28;20189;-76
2022/03/26 17:41:14;;;;;;;7.60;4.87;;;12.40;90.20;;;;;;4956452;28;20433;-77
2022/03/26 17:43:40;;;;;;;6.53;4.50;;;12.40;90.20;;;;;;4973208;28;20587;-76
2022/03/26 17:46:09;;;;;;;10.43;4.53;;;12.30;91.40;;;;;;4982522;28;20423;-77
2022/03/26 17:48:34;;;;;;;8.20;4.40;;;12.30;91.70;;;;;;4981547;28;20417;-79
2022/03/26 17:51:00;;;;;;;8.83;4.50;;;12.30;91.40;;;;;;4956617;28;20950;-76
2022/03/26 17:53:25;;;;;;;5.70;4.30;;;12.30;92.60;;;;;;4957196;28;20879;-76
2022/03/26 17:55:51;;;;;;;8.33;5.33;;;12.30;92.40;;;;;;4956683;28;20557;-77